DEDRR EDCW-EDDH
Flight info
| Callsign | DEDRR |
|---|---|
| Flight time | 0h 44m |
| Altitude | 2500 |
| Route | VFR |
| Aircraft | P28A/L-S/C |
Departure
| Time | 2026-05-05 14:25 |
|---|---|
| Airport | Wismar Airfield (EDCW) |
Arrival
| Time | 2026-05-05 15:09 |
|---|---|
| Airport | Hamburg Helmut Schmidt Airport (EDDH) |
| Time | Latitude | Longitude | Altitude | Speed | Heading |
|---|---|---|---|---|---|
| 2026-05-05 14:16 | 53.91600 | 11.50111 | 42 ft | 0 kts | 187° |
| 2026-05-05 14:20 | 53.91599 | 11.50111 | 42 ft | 1 kts | 162° |
| 2026-05-05 14:21 | 53.91600 | 11.50141 | 43 ft | 0 kts | 83° |
| 2026-05-05 14:22 | 53.91600 | 11.50149 | 43 ft | 3 kts | 90° |
| 2026-05-05 14:22 | 53.91565 | 11.50201 | 48 ft | 10 kts | 168° |
| 2026-05-05 14:23 | 53.91520 | 11.50207 | 53 ft | 7 kts | 173° |
| 2026-05-05 14:23 | 53.91474 | 11.50110 | 49 ft | 18 kts | 263° |
| 2026-05-05 14:23 | 53.91449 | 11.49862 | 42 ft | 22 kts | 258° |
| 2026-05-05 14:23 | 53.91415 | 11.49700 | 36 ft | 4 kts | 109° |
| 2026-05-05 14:24 | 53.91415 | 11.49704 | 37 ft | 1 kts | 81° |
| 2026-05-05 14:24 | 53.91454 | 11.50016 | 46 ft | 54 kts | 76° |
| 2026-05-05 14:24 | 53.91537 | 11.50808 | 219 ft | 77 kts | 74° |
| 2026-05-05 14:24 | 53.91684 | 11.51702 | 545 ft | 80 kts | 72° |
| 2026-05-05 14:25 | 53.91890 | 11.52616 | 875 ft | 90 kts | 52° |
| 2026-05-05 14:25 | 53.92502 | 11.53129 | 1094 ft | 113 kts | 6° |
| 2026-05-05 14:25 | 53.93285 | 11.52665 | 1414 ft | 122 kts | 324° |
| 2026-05-05 14:25 | 53.93584 | 11.51231 | 1546 ft | 152 kts | 264° |
| 2026-05-05 14:26 | 53.93251 | 11.49671 | 2034 ft | 136 kts | 250° |
| 2026-05-05 14:26 | 53.92928 | 11.48233 | 2565 ft | 122 kts | 258° |
| 2026-05-05 14:26 | 53.92737 | 11.46820 | 2896 ft | 130 kts | 263° |
| 2026-05-05 14:26 | 53.92567 | 11.45242 | 2988 ft | 141 kts | 257° |
| 2026-05-05 14:27 | 53.92274 | 11.43636 | 3052 ft | 147 kts | 253° |
| 2026-05-05 14:27 | 53.91923 | 11.41972 | 2949 ft | 151 kts | 250° |
| 2026-05-05 14:27 | 53.91534 | 11.40279 | 2757 ft | 155 kts | 252° |
| 2026-05-05 14:27 | 53.91241 | 11.38560 | 2785 ft | 146 kts | 258° |
| 2026-05-05 14:28 | 53.90997 | 11.36886 | 2758 ft | 146 kts | 258° |
| 2026-05-05 14:28 | 53.90771 | 11.35314 | 2995 ft | 126 kts | 260° |
| 2026-05-05 14:28 | 53.90598 | 11.33828 | 2998 ft | 130 kts | 260° |
| 2026-05-05 14:28 | 53.90403 | 11.32295 | 2914 ft | 137 kts | 260° |
| 2026-05-05 14:29 | 53.90168 | 11.30671 | 2786 ft | 144 kts | 257° |
| 2026-05-05 14:29 | 53.89897 | 11.29006 | 2610 ft | 151 kts | 257° |
| 2026-05-05 14:29 | 53.89629 | 11.27292 | 2579 ft | 146 kts | 258° |
| 2026-05-05 14:29 | 53.89375 | 11.25643 | 2580 ft | 143 kts | 259° |
| 2026-05-05 14:30 | 53.89138 | 11.24040 | 2573 ft | 142 kts | 258° |
| 2026-05-05 14:30 | 53.88891 | 11.22421 | 2577 ft | 143 kts | 258° |
| 2026-05-05 14:30 | 53.88627 | 11.20779 | 2519 ft | 145 kts | 257° |
| 2026-05-05 14:30 | 53.88369 | 11.19112 | 2480 ft | 148 kts | 259° |
| 2026-05-05 14:31 | 53.88124 | 11.17420 | 2438 ft | 148 kts | 259° |
| 2026-05-05 14:31 | 53.87885 | 11.15721 | 2406 ft | 147 kts | 259° |
| 2026-05-05 14:31 | 53.87656 | 11.14033 | 2391 ft | 147 kts | 259° |
| 2026-05-05 14:31 | 53.87418 | 11.12328 | 2340 ft | 149 kts | 261° |
| 2026-05-05 14:32 | 53.87179 | 11.10600 | 2300 ft | 151 kts | 257° |
| 2026-05-05 14:32 | 53.86875 | 11.08950 | 2440 ft | 141 kts | 263° |
| 2026-05-05 14:32 | 53.86929 | 11.07352 | 2586 ft | 134 kts | 281° |
| 2026-05-05 14:32 | 53.87013 | 11.05737 | 2617 ft | 140 kts | 279° |
| 2026-05-05 14:33 | 53.87078 | 11.04092 | 2622 ft | 140 kts | 277° |
| 2026-05-05 14:33 | 53.87130 | 11.02416 | 2572 ft | 142 kts | 278° |
| 2026-05-05 14:33 | 53.87244 | 11.00809 | 2626 ft | 134 kts | 285° |
| 2026-05-05 14:33 | 53.87529 | 10.99325 | 2636 ft | 132 kts | 297° |
| 2026-05-05 14:34 | 53.87879 | 10.97862 | 2580 ft | 136 kts | 294° |
| 2026-05-05 14:34 | 53.88176 | 10.96353 | 2647 ft | 132 kts | 292° |
| 2026-05-05 14:34 | 53.88438 | 10.94856 | 2681 ft | 134 kts | 290° |
| 2026-05-05 14:34 | 53.88669 | 10.93371 | 2704 ft | 131 kts | 289° |
| 2026-05-05 14:35 | 53.88896 | 10.91863 | 2681 ft | 133 kts | 289° |
| 2026-05-05 14:35 | 53.89130 | 10.90345 | 2706 ft | 133 kts | 289° |
| 2026-05-05 14:35 | 53.89391 | 10.88841 | 2879 ft | 129 kts | 294° |
| 2026-05-05 14:35 | 53.89678 | 10.87341 | 2956 ft | 134 kts | 288° |
| 2026-05-05 14:36 | 53.90007 | 10.85874 | 3039 ft | 133 kts | 295° |
| 2026-05-05 14:36 | 53.90367 | 10.84351 | 2937 ft | 142 kts | 294° |
| 2026-05-05 14:36 | 53.90693 | 10.82778 | 2970 ft | 143 kts | 292° |
| 2026-05-05 14:36 | 53.90970 | 10.81155 | 2991 ft | 140 kts | 289° |
| 2026-05-05 14:37 | 53.91164 | 10.79572 | 3128 ft | 134 kts | 275° |
| 2026-05-05 14:37 | 53.91083 | 10.77975 | 3136 ft | 138 kts | 267° |
| 2026-05-05 14:37 | 53.90981 | 10.76350 | 3119 ft | 139 kts | 267° |
| 2026-05-05 14:37 | 53.90876 | 10.74716 | 3107 ft | 138 kts | 265° |
| 2026-05-05 14:38 | 53.90743 | 10.73104 | 3120 ft | 135 kts | 266° |
| 2026-05-05 14:38 | 53.90692 | 10.71518 | 3092 ft | 136 kts | 273° |
| 2026-05-05 14:38 | 53.90691 | 10.69931 | 3136 ft | 132 kts | 274° |
| 2026-05-05 14:38 | 53.90718 | 10.68366 | 3130 ft | 133 kts | 278° |
| 2026-05-05 14:39 | 53.90765 | 10.66804 | 3131 ft | 133 kts | 275° |
| 2026-05-05 14:39 | 53.90728 | 10.65223 | 3155 ft | 133 kts | 267° |
| 2026-05-05 14:39 | 53.90592 | 10.63659 | 3173 ft | 135 kts | 263° |
| 2026-05-05 14:39 | 53.90388 | 10.62075 | 3090 ft | 139 kts | 259° |
| 2026-05-05 14:40 | 53.90143 | 10.60491 | 3049 ft | 136 kts | 258° |
| 2026-05-05 14:40 | 53.89994 | 10.59485 | 3100 ft | 130 kts | 259° |
| 2026-05-05 14:40 | 53.89755 | 10.57963 | 2991 ft | 138 kts | 259° |
| 2026-05-05 14:40 | 53.89510 | 10.56394 | 2979 ft | 135 kts | 258° |
| 2026-05-05 14:41 | 53.89270 | 10.54850 | 2944 ft | 136 kts | 258° |
| 2026-05-05 14:41 | 53.89037 | 10.53289 | 2871 ft | 137 kts | 258° |
| 2026-05-05 14:41 | 53.88798 | 10.51725 | 2816 ft | 137 kts | 258° |
| 2026-05-05 14:41 | 53.88555 | 10.50177 | 2781 ft | 139 kts | 255° |
| 2026-05-05 14:42 | 53.88201 | 10.48623 | 2725 ft | 143 kts | 249° |
| 2026-05-05 14:42 | 53.87810 | 10.47043 | 2633 ft | 147 kts | 250° |
| 2026-05-05 14:42 | 53.87378 | 10.45458 | 2577 ft | 146 kts | 242° |
| 2026-05-05 14:42 | 53.86862 | 10.43916 | 2402 ft | 151 kts | 242° |
| 2026-05-05 14:43 | 53.86329 | 10.42349 | 2291 ft | 151 kts | 240° |
| 2026-05-05 14:43 | 53.85819 | 10.40833 | 2318 ft | 145 kts | 242° |
| 2026-05-05 14:43 | 53.85360 | 10.39356 | 2353 ft | 142 kts | 245° |
| 2026-05-05 14:43 | 53.84916 | 10.37868 | 2354 ft | 142 kts | 244° |
| 2026-05-05 14:44 | 53.84483 | 10.36374 | 2382 ft | 140 kts | 246° |
| 2026-05-05 14:44 | 53.84051 | 10.34918 | 2421 ft | 139 kts | 244° |
| 2026-05-05 14:44 | 53.83606 | 10.33451 | 2447 ft | 140 kts | 245° |
| 2026-05-05 14:44 | 53.83168 | 10.31975 | 2490 ft | 140 kts | 244° |
| 2026-05-05 14:45 | 53.82731 | 10.30513 | 2545 ft | 139 kts | 244° |
| 2026-05-05 14:45 | 53.82305 | 10.29030 | 2576 ft | 138 kts | 248° |
| 2026-05-05 14:45 | 53.81935 | 10.27541 | 2585 ft | 139 kts | 250° |
| 2026-05-05 14:45 | 53.81573 | 10.26023 | 2599 ft | 141 kts | 250° |
| 2026-05-05 14:46 | 53.81192 | 10.24470 | 2573 ft | 144 kts | 250° |
| 2026-05-05 14:46 | 53.80820 | 10.22874 | 2528 ft | 147 kts | 250° |
| 2026-05-05 14:46 | 53.80460 | 10.21305 | 2625 ft | 136 kts | 250° |
| 2026-05-05 14:46 | 53.80077 | 10.19806 | 2554 ft | 143 kts | 250° |
| 2026-05-05 14:47 | 53.79761 | 10.18191 | 2431 ft | 147 kts | 259° |
| 2026-05-05 14:47 | 53.79586 | 10.16495 | 2370 ft | 146 kts | 264° |
| 2026-05-05 14:47 | 53.79466 | 10.14814 | 2356 ft | 143 kts | 268° |
| 2026-05-05 14:47 | 53.79433 | 10.13128 | 2321 ft | 142 kts | 274° |
| 2026-05-05 14:48 | 53.79469 | 10.11473 | 2334 ft | 140 kts | 276° |
| 2026-05-05 14:48 | 53.79540 | 10.09847 | 2387 ft | 137 kts | 279° |
| 2026-05-05 14:48 | 53.79666 | 10.08269 | 2417 ft | 135 kts | 283° |
| 2026-05-05 14:48 | 53.79911 | 10.06733 | 2405 ft | 135 kts | 299° |
| 2026-05-05 14:49 | 53.80354 | 10.05356 | 2436 ft | 132 kts | 305° |
| 2026-05-05 14:49 | 53.80824 | 10.04008 | 2409 ft | 134 kts | 305° |
| 2026-05-05 14:49 | 53.80987 | 10.02525 | 2331 ft | 142 kts | 251° |
| 2026-05-05 14:49 | 53.80267 | 10.01374 | 2257 ft | 145 kts | 206° |
| 2026-05-05 14:50 | 53.79290 | 10.00970 | 2316 ft | 139 kts | 186° |
| 2026-05-05 14:50 | 53.78342 | 10.00738 | 2271 ft | 144 kts | 185° |
| 2026-05-05 14:50 | 53.77357 | 10.00656 | 2239 ft | 139 kts | 178° |
| 2026-05-05 14:50 | 53.76397 | 10.00619 | 2182 ft | 140 kts | 179° |
| 2026-05-05 14:51 | 53.75427 | 10.00592 | 2151 ft | 138 kts | 177° |
| 2026-05-05 14:51 | 53.74466 | 10.00553 | 2129 ft | 139 kts | 180° |
| 2026-05-05 14:51 | 53.73522 | 10.00459 | 2071 ft | 140 kts | 181° |
| 2026-05-05 14:51 | 53.72530 | 10.00325 | 2099 ft | 139 kts | 180° |
| 2026-05-05 14:52 | 53.71556 | 10.00273 | 2074 ft | 140 kts | 179° |
| 2026-05-05 14:52 | 53.70590 | 10.00180 | 2060 ft | 138 kts | 181° |
| 2026-05-05 14:52 | 53.69627 | 10.00051 | 1989 ft | 140 kts | 181° |
| 2026-05-05 14:52 | 53.68642 | 10.00008 | 1865 ft | 143 kts | 177° |
| 2026-05-05 14:53 | 53.67651 | 10.00047 | 1799 ft | 137 kts | 172° |
| 2026-05-05 14:53 | 53.66731 | 10.00197 | 1755 ft | 130 kts | 170° |
| 2026-05-05 14:53 | 53.65856 | 10.00399 | 1718 ft | 126 kts | 167° |
| 2026-05-05 14:53 | 53.64964 | 10.00639 | 1709 ft | 124 kts | 166° |
| 2026-05-05 14:54 | 53.64139 | 10.00870 | 1670 ft | 124 kts | 166° |
| 2026-05-05 14:54 | 53.63289 | 10.01093 | 1612 ft | 123 kts | 167° |
| 2026-05-05 14:54 | 53.62434 | 10.01171 | 1489 ft | 122 kts | 183° |
| 2026-05-05 14:54 | 53.61665 | 10.00507 | 1318 ft | 127 kts | 225° |
| 2026-05-05 14:55 | 53.61132 | 9.99348 | 1149 ft | 126 kts | 238° |
| 2026-05-05 14:55 | 53.60723 | 9.98090 | 1051 ft | 119 kts | 245° |
| 2026-05-05 14:55 | 53.60359 | 9.96906 | 1094 ft | 104 kts | 225° |
| 2026-05-05 14:55 | 53.59734 | 9.96590 | 1160 ft | 93 kts | 161° |
| 2026-05-05 14:56 | 53.59365 | 9.97311 | 1216 ft | 79 kts | 86° |
| 2026-05-05 14:56 | 53.59678 | 9.97925 | 1258 ft | 78 kts | 12° |
| 2026-05-05 14:56 | 53.60137 | 9.97455 | 1335 ft | 85 kts | 296° |
| 2026-05-05 14:56 | 53.59941 | 9.96596 | 1402 ft | 88 kts | 211° |
| 2026-05-05 14:57 | 53.59394 | 9.95983 | 1279 ft | 107 kts | 225° |
| 2026-05-05 14:57 | 53.58902 | 9.94890 | 1136 ft | 114 kts | 244° |
| 2026-05-05 14:57 | 53.58700 | 9.93686 | 1141 ft | 106 kts | 278° |
| 2026-05-05 14:57 | 53.59053 | 9.92760 | 1172 ft | 92 kts | 341° |
| 2026-05-05 14:58 | 53.59697 | 9.92867 | 1134 ft | 105 kts | 21° |
| 2026-05-05 14:58 | 53.60398 | 9.93498 | 991 ft | 120 kts | 38° |
| 2026-05-05 14:58 | 53.60980 | 9.94572 | 766 ft | 126 kts | 53° |
| 2026-05-05 14:58 | 53.61534 | 9.95742 | 502 ft | 129 kts | 51° |
| 2026-05-05 14:59 | 53.62104 | 9.96897 | 301 ft | 115 kts | 51° |
| 2026-05-05 14:59 | 53.62565 | 9.97849 | 206 ft | 99 kts | 52° |
| 2026-05-05 14:59 | 53.62975 | 9.98693 | 199 ft | 88 kts | 52° |
| 2026-05-05 14:59 | 53.63366 | 9.99505 | 292 ft | 95 kts | 54° |
| 2026-05-05 15:00 | 53.63621 | 10.00107 | 427 ft | 98 kts | 59° |
| 2026-05-05 15:00 | 53.63862 | 10.01212 | 661 ft | 105 kts | 91° |
| 2026-05-05 15:00 | 53.63173 | 10.02372 | 908 ft | 126 kts | 166° |
| 2026-05-05 15:00 | 53.62279 | 10.02045 | 1010 ft | 139 kts | 210° |
| 2026-05-05 15:01 | 53.61589 | 10.00942 | 1259 ft | 133 kts | 226° |
| 2026-05-05 15:01 | 53.60946 | 9.99815 | 1457 ft | 134 kts | 227° |
| 2026-05-05 15:01 | 53.60297 | 9.98666 | 1629 ft | 137 kts | 225° |
| 2026-05-05 15:01 | 53.59611 | 9.97540 | 1805 ft | 138 kts | 223° |
| 2026-05-05 15:02 | 53.58893 | 9.96427 | 1924 ft | 144 kts | 221° |
| 2026-05-05 15:02 | 53.58133 | 9.95301 | 2028 ft | 148 kts | 221° |
| 2026-05-05 15:02 | 53.57325 | 9.94143 | 2057 ft | 152 kts | 219° |
| 2026-05-05 15:02 | 53.56470 | 9.93098 | 2142 ft | 150 kts | 206° |
| 2026-05-05 15:03 | 53.55826 | 9.92716 | 2202 ft | 146 kts | 187° |
| 2026-05-05 15:03 | 53.54852 | 9.92816 | 2353 ft | 139 kts | 161° |
| 2026-05-05 15:03 | 53.53973 | 9.93317 | 2389 ft | 130 kts | 154° |
| 2026-05-05 15:03 | 53.53166 | 9.93975 | 2331 ft | 128 kts | 145° |
| 2026-05-05 15:04 | 53.52431 | 9.94773 | 2190 ft | 122 kts | 136° |
| 2026-05-05 15:04 | 53.51883 | 9.95763 | 2181 ft | 103 kts | 110° |
| 2026-05-05 15:04 | 53.51817 | 9.96927 | 2069 ft | 106 kts | 81° |
| 2026-05-05 15:04 | 53.51936 | 9.98135 | 1993 ft | 101 kts | 73° |
| 2026-05-05 15:05 | 53.52435 | 10.00052 | 1907 ft | 80 kts | 54° |
| 2026-05-05 15:05 | 53.52859 | 10.00626 | 1901 ft | 80 kts | 24° |
| 2026-05-05 15:05 | 53.53420 | 10.00695 | 1949 ft | 85 kts | 357° |
| 2026-05-05 15:06 | 53.54042 | 10.00399 | 1864 ft | 97 kts | 345° |
| 2026-05-05 15:06 | 53.54634 | 9.99928 | 1905 ft | 96 kts | 339° |
| 2026-05-05 15:06 | 53.55239 | 9.99417 | 1892 ft | 98 kts | 340° |
| 2026-05-05 15:06 | 53.55884 | 9.98954 | 1862 ft | 106 kts | 344° |
| 2026-05-05 15:07 | 53.56609 | 9.98432 | 1908 ft | 120 kts | 341° |
| 2026-05-05 15:07 | 53.57384 | 9.97666 | 1866 ft | 138 kts | 329° |
| 2026-05-05 15:07 | 53.58169 | 9.96656 | 1781 ft | 144 kts | 325° |
| 2026-05-05 15:07 | 53.58903 | 9.95576 | 1494 ft | 130 kts | 321° |
| 2026-05-05 15:08 | 53.59547 | 9.94764 | 1190 ft | 102 kts | 339° |
| 2026-05-05 15:08 | 53.60184 | 9.94566 | 906 ft | 88 kts | 7° |
| 2026-05-05 15:08 | 53.60768 | 9.94702 | 580 ft | 84 kts | 15° |
| 2026-05-05 15:08 | 53.61253 | 9.95142 | 353 ft | 76 kts | 46° |
| 2026-05-05 15:09 | 53.61564 | 9.95812 | 219 ft | 70 kts | 54° |
| 2026-05-05 15:09 | 53.61865 | 9.96449 | 118 ft | 65 kts | 52° |
| 2026-05-05 15:09 | 53.62134 | 9.96987 | 36 ft | 51 kts | 51° |
| 2026-05-05 15:09 | 53.62305 | 9.97330 | 34 ft | 34 kts | 50° |
| 2026-05-05 15:10 | 53.62446 | 9.97642 | 35 ft | 29 kts | 52° |
| 2026-05-05 15:10 | 53.62438 | 9.97831 | 38 ft | 7 kts | 121° |
| 2026-05-05 15:10 | 53.62426 | 9.97900 | 40 ft | 7 kts | 82° |
| 2026-05-05 15:10 | 53.62440 | 9.98002 | 41 ft | 12 kts | 75° |
| 2026-05-05 15:11 | 53.62487 | 9.98142 | 41 ft | 16 kts | 50° |
| 2026-05-05 15:11 | 53.62562 | 9.98292 | 41 ft | 17 kts | 51° |
| 2026-05-05 15:11 | 53.62641 | 9.98452 | 41 ft | 18 kts | 50° |
| 2026-05-05 15:11 | 53.62719 | 9.98610 | 41 ft | 15 kts | 50° |
| 2026-05-05 15:12 | 53.62745 | 9.98707 | 41 ft | 8 kts | 144° |
| 2026-05-05 15:12 | 53.62711 | 9.98766 | 41 ft | 8 kts | 151° |
| 2026-05-05 15:12 | 53.62686 | 9.98811 | 41 ft | 4 kts | 56° |
| 2026-05-05 15:12 | 53.62706 | 9.98819 | 41 ft | 3 kts | 311° |
| 2026-05-05 15:13 | 53.62704 | 9.98802 | 41 ft | 0 kts | 242° |
| 2026-05-05 15:13 | 53.62704 | 9.98801 | 41 ft | 0 kts | 242° |